sensor_id;sensor_type;location;lat;lon;timestamp;P1;durP1;ratioP1;P2;durP2;ratioP2
11709;SDS011;5911;51.036;6.972;2022-11-20T00:00:56;15.53;;;12.70;;
11709;SDS011;5911;51.036;6.972;2022-11-20T00:03:24;15.27;;;12.47;;
11709;SDS011;5911;51.036;6.972;2022-11-20T00:05:52;18.07;;;13.13;;
11709;SDS011;5911;51.036;6.972;2022-11-20T00:08:21;14.20;;;12.27;;
11709;SDS011;5911;51.036;6.972;2022-11-20T00:10:49;13.57;;;11.97;;
11709;SDS011;5911;51.036;6.972;2022-11-20T00:13:16;14.53;;;11.47;;
11709;SDS011;5911;51.036;6.972;2022-11-20T00:15:44;15.07;;;12.23;;
11709;SDS011;5911;51.036;6.972;2022-11-20T00:18:12;14.20;;;11.60;;
11709;SDS011;5911;51.036;6.972;2022-11-20T00:20:40;15.77;;;12.60;;
11709;SDS011;5911;51.036;6.972;2022-11-20T00:23:08;14.70;;;12.10;;
11709;SDS011;5911;51.036;6.972;2022-11-20T00:25:37;14.57;;;12.50;;
11709;SDS011;5911;51.036;6.972;2022-11-20T00:28:04;15.23;;;12.23;;
11709;SDS011;5911;51.036;6.972;2022-11-20T00:30:32;14.43;;;11.77;;
11709;SDS011;5911;51.036;6.972;2022-11-20T00:33:00;14.97;;;11.93;;
11709;SDS011;5911;51.036;6.972;2022-11-20T00:35:28;15.13;;;12.30;;
11709;SDS011;5911;51.036;6.972;2022-11-20T00:37:56;14.20;;;11.57;;
11709;SDS011;5911;51.036;6.972;2022-11-20T00:40:23;13.53;;;11.40;;
11709;SDS011;5911;51.036;6.972;2022-11-20T00:42:52;14.90;;;12.40;;
11709;SDS011;5911;51.036;6.972;2022-11-20T00:45:20;13.23;;;11.57;;
11709;SDS011;5911;51.036;6.972;2022-11-20T00:47:48;15.10;;;11.80;;
11709;SDS011;5911;51.036;6.972;2022-11-20T00:50:16;14.90;;;12.60;;
11709;SDS011;5911;51.036;6.972;2022-11-20T00:52:43;16.43;;;12.57;;
11709;SDS011;5911;51.036;6.972;2022-11-20T00:55:11;16.93;;;13.10;;
11709;SDS011;5911;51.036;6.972;2022-11-20T00:57:39;15.47;;;12.03;;
11709;SDS011;5911;51.036;6.972;2022-11-20T01:00:09;14.13;;;12.40;;
11709;SDS011;5911;51.036;6.972;2022-11-20T01:02:37;15.83;;;12.23;;
11709;SDS011;5911;51.036;6.972;2022-11-20T01:05:05;15.57;;;12.07;;
11709;SDS011;5911;51.036;6.972;2022-11-20T01:07:33;14.17;;;12.10;;
11709;SDS011;5911;51.036;6.972;2022-11-20T01:10:01;13.47;;;11.33;;
11709;SDS011;5911;51.036;6.972;2022-11-20T01:12:29;13.80;;;11.70;;
11709;SDS011;5911;51.036;6.972;2022-11-20T01:14:57;13.90;;;11.53;;
11709;SDS011;5911;51.036;6.972;2022-11-20T01:17:26;13.60;;;11.97;;
11709;SDS011;5911;51.036;6.972;2022-11-20T01:19:54;15.53;;;12.20;;
11709;SDS011;5911;51.036;6.972;2022-11-20T01:22:21;15.40;;;12.13;;
11709;SDS011;5911;51.036;6.972;2022-11-20T01:24:49;15.30;;;12.70;;
11709;SDS011;5911;51.036;6.972;2022-11-20T01:27:17;16.13;;;12.17;;
11709;SDS011;5911;51.036;6.972;2022-11-20T01:29:45;14.53;;;12.23;;
11709;SDS011;5911;51.036;6.972;2022-11-20T01:32:13;14.77;;;12.30;;
11709;SDS011;5911;51.036;6.972;2022-11-20T01:34:42;14.80;;;12.20;;
11709;SDS011;5911;51.036;6.972;2022-11-20T01:37:09;14.03;;;11.83;;
11709;SDS011;5911;51.036;6.972;2022-11-20T01:39:37;13.33;;;11.93;;
11709;SDS011;5911;51.036;6.972;2022-11-20T01:42:05;12.87;;;11.13;;
11709;SDS011;5911;51.036;6.972;2022-11-20T01:44:53;13.87;;;10.90;;
11709;SDS011;5911;51.036;6.972;2022-11-20T01:47:30;14.37;;;11.20;;
11709;SDS011;5911;51.036;6.972;2022-11-20T01:50:05;14.07;;;12.03;;
11709;SDS011;5911;51.036;6.972;2022-11-20T01:52:39;14.07;;;11.53;;
11709;SDS011;5911;51.036;6.972;2022-11-20T01:55:11;15.73;;;12.33;;
11709;SDS011;5911;51.036;6.972;2022-11-20T01:57:42;13.83;;;12.10;;
11709;SDS011;5911;51.036;6.972;2022-11-20T02:00:13;14.50;;;11.50;;
11709;SDS011;5911;51.036;6.972;2022-11-20T02:02:44;14.97;;;11.87;;
11709;SDS011;5911;51.036;6.972;2022-11-20T02:05:18;12.60;;;11.07;;
11709;SDS011;5911;51.036;6.972;2022-11-20T02:07:51;15.60;;;11.93;;
11709;SDS011;5911;51.036;6.972;2022-11-20T02:10:21;16.20;;;11.87;;
11709;SDS011;5911;51.036;6.972;2022-11-20T02:12:49;14.13;;;11.97;;
11709;SDS011;5911;51.036;6.972;2022-11-20T02:15:34;14.60;;;11.87;;
11709;SDS011;5911;51.036;6.972;2022-11-20T02:18:02;13.33;;;11.97;;
11709;SDS011;5911;51.036;6.972;2022-11-20T02:20:33;13.90;;;12.17;;
11709;SDS011;5911;51.036;6.972;2022-11-20T02:23:02;14.80;;;11.97;;
11709;SDS011;5911;51.036;6.972;2022-11-20T02:25:36;14.03;;;10.93;;
11709;SDS011;5911;51.036;6.972;2022-11-20T02:28:05;14.13;;;12.17;;
11709;SDS011;5911;51.036;6.972;2022-11-20T02:30:33;12.97;;;11.40;;
11709;SDS011;5911;51.036;6.972;2022-11-20T02:33:01;14.10;;;12.67;;
11709;SDS011;5911;51.036;6.972;2022-11-20T02:35:39;13.07;;;11.47;;
11709;SDS011;5911;51.036;6.972;2022-11-20T02:38:11;14.53;;;11.17;;
11709;SDS011;5911;51.036;6.972;2022-11-20T02:40:40;13.80;;;11.20;;
11709;SDS011;5911;51.036;6.972;2022-11-20T02:43:08;14.97;;;11.80;;
11709;SDS011;5911;51.036;6.972;2022-11-20T02:45:36;14.20;;;11.67;;
11709;SDS011;5911;51.036;6.972;2022-11-20T02:48:05;14.70;;;12.00;;
11709;SDS011;5911;51.036;6.972;2022-11-20T02:50:36;14.70;;;11.90;;
11709;SDS011;5911;51.036;6.972;2022-11-20T02:53:05;14.47;;;11.67;;
11709;SDS011;5911;51.036;6.972;2022-11-20T02:55:33;13.00;;;11.13;;
11709;SDS011;5911;51.036;6.972;2022-11-20T02:58:03;14.60;;;12.33;;
11709;SDS011;5911;51.036;6.972;2022-11-20T03:00:31;13.83;;;11.17;;
11709;SDS011;5911;51.036;6.972;2022-11-20T03:02:59;14.43;;;11.40;;
11709;SDS011;5911;51.036;6.972;2022-11-20T03:05:27;13.70;;;11.70;;
11709;SDS011;5911;51.036;6.972;2022-11-20T03:07:55;12.23;;;10.67;;
11709;SDS011;5911;51.036;6.972;2022-11-20T03:10:23;13.43;;;10.47;;
11709;SDS011;5911;51.036;6.972;2022-11-20T03:12:52;14.70;;;11.27;;
11709;SDS011;5911;51.036;6.972;2022-11-20T03:15:22;13.53;;;11.53;;
11709;SDS011;5911;51.036;6.972;2022-11-20T03:17:52;11.93;;;9.93;;
11709;SDS011;5911;51.036;6.972;2022-11-20T03:20:20;13.50;;;10.43;;
11709;SDS011;5911;51.036;6.972;2022-11-20T03:22:48;13.20;;;11.33;;
11709;SDS011;5911;51.036;6.972;2022-11-20T03:25:16;12.37;;;10.60;;
11709;SDS011;5911;51.036;6.972;2022-11-20T03:27:44;13.63;;;11.40;;
11709;SDS011;5911;51.036;6.972;2022-11-20T03:30:12;13.73;;;11.23;;
11709;SDS011;5911;51.036;6.972;2022-11-20T03:32:41;15.30;;;12.70;;
11709;SDS011;5911;51.036;6.972;2022-11-20T03:35:09;14.77;;;11.10;;
11709;SDS011;5911;51.036;6.972;2022-11-20T03:37:37;15.03;;;11.73;;
11709;SDS011;5911;51.036;6.972;2022-11-20T03:40:05;13.73;;;11.97;;
11709;SDS011;5911;51.036;6.972;2022-11-20T03:42:34;13.10;;;11.30;;
11709;SDS011;5911;51.036;6.972;2022-11-20T03:45:14;13.90;;;11.63;;
11709;SDS011;5911;51.036;6.972;2022-11-20T03:47:45;13.73;;;11.80;;
11709;SDS011;5911;51.036;6.972;2022-11-20T03:50:14;13.23;;;11.47;;
11709;SDS011;5911;51.036;6.972;2022-11-20T03:52:42;13.37;;;11.40;;
11709;SDS011;5911;51.036;6.972;2022-11-20T03:55:10;13.33;;;11.93;;
11709;SDS011;5911;51.036;6.972;2022-11-20T03:57:37;15.53;;;11.90;;
11709;SDS011;5911;51.036;6.972;2022-11-20T04:00:06;14.67;;;12.27;;
11709;SDS011;5911;51.036;6.972;2022-11-20T04:02:34;16.03;;;12.93;;
11709;SDS011;5911;51.036;6.972;2022-11-20T04:05:03;14.57;;;12.40;;
11709;SDS011;5911;51.036;6.972;2022-11-20T04:07:33;13.97;;;11.87;;
11709;SDS011;5911;51.036;6.972;2022-11-20T04:10:01;14.73;;;11.43;;
11709;SDS011;5911;51.036;6.972;2022-11-20T04:12:31;14.20;;;11.67;;
11709;SDS011;5911;51.036;6.972;2022-11-20T04:14:59;14.60;;;11.77;;
11709;SDS011;5911;51.036;6.972;2022-11-20T04:17:27;15.60;;;12.30;;
11709;SDS011;5911;51.036;6.972;2022-11-20T04:19:55;13.90;;;11.43;;
11709;SDS011;5911;51.036;6.972;2022-11-20T04:22:24;12.63;;;11.27;;
11709;SDS011;5911;51.036;6.972;2022-11-20T04:24:52;13.70;;;12.00;;
11709;SDS011;5911;51.036;6.972;2022-11-20T04:27:20;14.47;;;12.43;;
11709;SDS011;5911;51.036;6.972;2022-11-20T04:29:48;12.70;;;11.20;;
11709;SDS011;5911;51.036;6.972;2022-11-20T04:32:15;15.90;;;11.90;;
11709;SDS011;5911;51.036;6.972;2022-11-20T04:34:43;13.33;;;11.93;;
11709;SDS011;5911;51.036;6.972;2022-11-20T04:37:11;13.43;;;11.63;;
11709;SDS011;5911;51.036;6.972;2022-11-20T04:39:40;14.87;;;12.13;;
11709;SDS011;5911;51.036;6.972;2022-11-20T04:42:08;12.37;;;10.63;;
11709;SDS011;5911;51.036;6.972;2022-11-20T04:44:54;14.30;;;11.77;;
11709;SDS011;5911;51.036;6.972;2022-11-20T04:47:22;13.50;;;11.40;;
11709;SDS011;5911;51.036;6.972;2022-11-20T04:49:50;13.53;;;10.93;;
11709;SDS011;5911;51.036;6.972;2022-11-20T04:52:18;12.60;;;11.30;;
11709;SDS011;5911;51.036;6.972;2022-11-20T04:54:47;14.20;;;11.63;;
11709;SDS011;5911;51.036;6.972;2022-11-20T04:57:15;14.40;;;10.83;;
11709;SDS011;5911;51.036;6.972;2022-11-20T04:59:42;15.93;;;12.13;;
11709;SDS011;5911;51.036;6.972;2022-11-20T05:02:11;13.27;;;11.03;;
11709;SDS011;5911;51.036;6.972;2022-11-20T05:04:38;14.07;;;12.30;;
11709;SDS011;5911;51.036;6.972;2022-11-20T05:07:06;14.70;;;12.13;;
11709;SDS011;5911;51.036;6.972;2022-11-20T05:09:34;14.17;;;11.60;;
11709;SDS011;5911;51.036;6.972;2022-11-20T05:12:03;15.77;;;11.90;;
11709;SDS011;5911;51.036;6.972;2022-11-20T05:14:31;14.13;;;11.07;;
11709;SDS011;5911;51.036;6.972;2022-11-20T05:16:59;13.77;;;11.10;;
11709;SDS011;5911;51.036;6.972;2022-11-20T05:19:27;13.63;;;11.60;;
11709;SDS011;5911;51.036;6.972;2022-11-20T05:21:56;15.67;;;11.73;;
11709;SDS011;5911;51.036;6.972;2022-11-20T05:24:23;14.10;;;11.50;;
11709;SDS011;5911;51.036;6.972;2022-11-20T05:26:51;14.80;;;12.17;;
11709;SDS011;5911;51.036;6.972;2022-11-20T05:29:20;13.97;;;11.73;;
11709;SDS011;5911;51.036;6.972;2022-11-20T05:31:48;14.40;;;12.27;;
11709;SDS011;5911;51.036;6.972;2022-11-20T05:34:16;16.60;;;12.00;;
11709;SDS011;5911;51.036;6.972;2022-11-20T05:36:44;14.80;;;11.20;;
11709;SDS011;5911;51.036;6.972;2022-11-20T05:39:11;14.00;;;11.90;;
11709;SDS011;5911;51.036;6.972;2022-11-20T05:41:39;15.10;;;11.63;;
11709;SDS011;5911;51.036;6.972;2022-11-20T05:44:09;17.67;;;11.97;;
11709;SDS011;5911;51.036;6.972;2022-11-20T05:46:39;14.37;;;11.80;;
11709;SDS011;5911;51.036;6.972;2022-11-20T05:49:07;15.17;;;13.17;;
11709;SDS011;5911;51.036;6.972;2022-11-20T05:51:34;16.23;;;12.10;;
11709;SDS011;5911;51.036;6.972;2022-11-20T05:54:02;15.70;;;12.90;;
11709;SDS011;5911;51.036;6.972;2022-11-20T05:56:30;14.87;;;12.00;;
11709;SDS011;5911;51.036;6.972;2022-11-20T05:58:58;16.03;;;11.73;;
11709;SDS011;5911;51.036;6.972;2022-11-20T06:01:26;13.70;;;12.00;;
11709;SDS011;5911;51.036;6.972;2022-11-20T06:03:55;15.30;;;12.40;;
11709;SDS011;5911;51.036;6.972;2022-11-20T06:06:23;16.03;;;12.70;;
11709;SDS011;5911;51.036;6.972;2022-11-20T06:08:52;15.77;;;12.37;;
11709;SDS011;5911;51.036;6.972;2022-11-20T06:11:20;16.77;;;13.23;;
11709;SDS011;5911;51.036;6.972;2022-11-20T06:13:48;14.47;;;12.10;;
11709;SDS011;5911;51.036;6.972;2022-11-20T06:16:19;15.57;;;12.57;;
11709;SDS011;5911;51.036;6.972;2022-11-20T06:18:48;15.80;;;13.23;;
11709;SDS011;5911;51.036;6.972;2022-11-20T06:21:18;15.23;;;12.57;;
11709;SDS011;5911;51.036;6.972;2022-11-20T06:23:47;15.30;;;13.00;;
11709;SDS011;5911;51.036;6.972;2022-11-20T06:26:16;13.10;;;11.00;;
11709;SDS011;5911;51.036;6.972;2022-11-20T06:28:46;18.23;;;13.13;;
11709;SDS011;5911;51.036;6.972;2022-11-20T06:31:14;14.87;;;11.80;;
11709;SDS011;5911;51.036;6.972;2022-11-20T06:33:47;16.83;;;12.60;;
11709;SDS011;5911;51.036;6.972;2022-11-20T06:36:20;17.70;;;13.40;;
11709;SDS011;5911;51.036;6.972;2022-11-20T06:38:49;14.13;;;12.23;;
11709;SDS011;5911;51.036;6.972;2022-11-20T06:41:18;15.30;;;12.20;;
11709;SDS011;5911;51.036;6.972;2022-11-20T06:43:47;14.87;;;12.40;;
11709;SDS011;5911;51.036;6.972;2022-11-20T06:46:16;15.87;;;12.80;;
11709;SDS011;5911;51.036;6.972;2022-11-20T06:48:45;13.47;;;11.67;;
11709;SDS011;5911;51.036;6.972;2022-11-20T06:51:13;15.60;;;12.00;;
11709;SDS011;5911;51.036;6.972;2022-11-20T06:53:42;14.77;;;11.87;;
11709;SDS011;5911;51.036;6.972;2022-11-20T06:56:10;16.90;;;12.70;;
11709;SDS011;5911;51.036;6.972;2022-11-20T06:58:38;16.13;;;12.33;;
11709;SDS011;5911;51.036;6.972;2022-11-20T07:01:07;16.80;;;12.43;;
11709;SDS011;5911;51.036;6.972;2022-11-20T07:03:37;16.50;;;12.87;;
11709;SDS011;5911;51.036;6.972;2022-11-20T07:06:08;16.60;;;12.67;;
11709;SDS011;5911;51.036;6.972;2022-11-20T07:08:37;16.77;;;13.13;;
11709;SDS011;5911;51.036;6.972;2022-11-20T07:11:06;16.47;;;13.73;;
11709;SDS011;5911;51.036;6.972;2022-11-20T07:13:34;14.77;;;12.53;;
11709;SDS011;5911;51.036;6.972;2022-11-20T07:16:02;14.93;;;12.00;;
11709;SDS011;5911;51.036;6.972;2022-11-20T07:18:32;16.77;;;13.40;;
11709;SDS011;5911;51.036;6.972;2022-11-20T07:21:04;15.93;;;13.07;;
11709;SDS011;5911;51.036;6.972;2022-11-20T07:23:34;17.20;;;12.90;;
11709;SDS011;5911;51.036;6.972;2022-11-20T07:26:02;15.53;;;12.30;;
11709;SDS011;5911;51.036;6.972;2022-11-20T07:28:32;18.03;;;13.17;;
11709;SDS011;5911;51.036;6.972;2022-11-20T07:31:01;15.03;;;12.80;;
11709;SDS011;5911;51.036;6.972;2022-11-20T07:33:29;16.03;;;12.83;;
11709;SDS011;5911;51.036;6.972;2022-11-20T07:35:58;17.23;;;13.77;;
11709;SDS011;5911;51.036;6.972;2022-11-20T07:38:25;18.27;;;13.43;;
11709;SDS011;5911;51.036;6.972;2022-11-20T07:40:53;17.60;;;13.43;;
11709;SDS011;5911;51.036;6.972;2022-11-20T07:43:22;15.67;;;13.43;;
11709;SDS011;5911;51.036;6.972;2022-11-20T07:45:52;17.03;;;14.17;;
11709;SDS011;5911;51.036;6.972;2022-11-20T07:48:22;19.80;;;14.00;;
11709;SDS011;5911;51.036;6.972;2022-11-20T07:50:52;18.20;;;13.47;;
11709;SDS011;5911;51.036;6.972;2022-11-20T07:53:21;15.67;;;13.17;;
11709;SDS011;5911;51.036;6.972;2022-11-20T07:55:49;17.50;;;13.57;;
11709;SDS011;5911;51.036;6.972;2022-11-20T07:58:18;16.93;;;14.23;;
11709;SDS011;5911;51.036;6.972;2022-11-20T08:00:46;16.90;;;13.63;;
11709;SDS011;5911;51.036;6.972;2022-11-20T08:03:15;16.30;;;12.67;;
11709;SDS011;5911;51.036;6.972;2022-11-20T08:05:50;17.33;;;13.40;;
11709;SDS011;5911;51.036;6.972;2022-11-20T08:08:18;17.67;;;13.77;;
11709;SDS011;5911;51.036;6.972;2022-11-20T08:10:46;16.90;;;13.53;;
11709;SDS011;5911;51.036;6.972;2022-11-20T08:13:13;17.00;;;13.60;;
11709;SDS011;5911;51.036;6.972;2022-11-20T08:15:59;16.73;;;13.87;;
11709;SDS011;5911;51.036;6.972;2022-11-20T08:18:28;17.60;;;13.90;;
11709;SDS011;5911;51.036;6.972;2022-11-20T08:20:58;19.70;;;14.07;;
11709;SDS011;5911;51.036;6.972;2022-11-20T08:23:28;17.53;;;13.83;;
11709;SDS011;5911;51.036;6.972;2022-11-20T08:25:56;17.97;;;13.43;;
11709;SDS011;5911;51.036;6.972;2022-11-20T08:28:24;16.43;;;14.03;;
11709;SDS011;5911;51.036;6.972;2022-11-20T08:30:57;15.77;;;12.97;;
11709;SDS011;5911;51.036;6.972;2022-11-20T08:33:25;18.57;;;13.83;;
11709;SDS011;5911;51.036;6.972;2022-11-20T08:35:57;16.90;;;13.70;;
11709;SDS011;5911;51.036;6.972;2022-11-20T08:38:26;16.23;;;12.73;;
11709;SDS011;5911;51.036;6.972;2022-11-20T08:40:56;16.90;;;13.90;;
11709;SDS011;5911;51.036;6.972;2022-11-20T08:43:41;18.03;;;13.70;;
11709;SDS011;5911;51.036;6.972;2022-11-20T08:46:10;19.00;;;13.63;;
11709;SDS011;5911;51.036;6.972;2022-11-20T08:48:40;17.33;;;14.47;;
11709;SDS011;5911;51.036;6.972;2022-11-20T08:51:08;19.07;;;13.77;;
11709;SDS011;5911;51.036;6.972;2022-11-20T08:53:39;16.90;;;13.80;;
11709;SDS011;5911;51.036;6.972;2022-11-20T08:56:07;20.27;;;15.33;;
11709;SDS011;5911;51.036;6.972;2022-11-20T08:58:37;18.27;;;13.60;;
11709;SDS011;5911;51.036;6.972;2022-11-20T09:01:25;17.60;;;14.93;;
11709;SDS011;5911;51.036;6.972;2022-11-20T09:03:56;17.97;;;14.50;;
11709;SDS011;5911;51.036;6.972;2022-11-20T09:06:25;18.10;;;14.80;;
11709;SDS011;5911;51.036;6.972;2022-11-20T09:08:56;18.37;;;13.67;;
11709;SDS011;5911;51.036;6.972;2022-11-20T09:11:31;18.03;;;14.23;;
11709;SDS011;5911;51.036;6.972;2022-11-20T09:13:59;18.13;;;13.70;;
11709;SDS011;5911;51.036;6.972;2022-11-20T09:16:29;18.23;;;15.13;;
11709;SDS011;5911;51.036;6.972;2022-11-20T09:18:59;18.87;;;14.80;;
11709;SDS011;5911;51.036;6.972;2022-11-20T09:21:50;20.13;;;14.10;;
11709;SDS011;5911;51.036;6.972;2022-11-20T09:24:28;20.27;;;14.63;;
11709;SDS011;5911;51.036;6.972;2022-11-20T09:27:05;18.97;;;15.07;;
11709;SDS011;5911;51.036;6.972;2022-11-20T09:29:34;19.30;;;14.90;;
11709;SDS011;5911;51.036;6.972;2022-11-20T09:32:01;20.00;;;14.30;;
11709;SDS011;5911;51.036;6.972;2022-11-20T09:34:31;20.37;;;14.73;;
11709;SDS011;5911;51.036;6.972;2022-11-20T09:36:58;18.93;;;15.00;;
11709;SDS011;5911;51.036;6.972;2022-11-20T09:39:31;19.40;;;15.03;;
11709;SDS011;5911;51.036;6.972;2022-11-20T09:42:13;18.60;;;14.37;;
11709;SDS011;5911;51.036;6.972;2022-11-20T09:44:58;19.77;;;14.30;;
11709;SDS011;5911;51.036;6.972;2022-11-20T09:47:41;20.83;;;15.20;;
11709;SDS011;5911;51.036;6.972;2022-11-20T09:50:26;18.30;;;14.20;;
11709;SDS011;5911;51.036;6.972;2022-11-20T09:53:04;18.00;;;14.33;;
11709;SDS011;5911;51.036;6.972;2022-11-20T09:55:39;18.00;;;14.30;;
11709;SDS011;5911;51.036;6.972;2022-11-20T09:58:12;17.67;;;14.13;;
11709;SDS011;5911;51.036;6.972;2022-11-20T10:00:43;19.13;;;14.57;;
11709;SDS011;5911;51.036;6.972;2022-11-20T10:03:13;19.80;;;14.23;;
11709;SDS011;5911;51.036;6.972;2022-11-20T10:05:47;18.77;;;14.70;;
11709;SDS011;5911;51.036;6.972;2022-11-20T10:08:19;19.63;;;15.20;;
11709;SDS011;5911;51.036;6.972;2022-11-20T10:10:52;18.50;;;13.50;;
11709;SDS011;5911;51.036;6.972;2022-11-20T10:13:27;17.97;;;13.27;;
11709;SDS011;5911;51.036;6.972;2022-11-20T10:16:07;15.67;;;12.67;;
11709;SDS011;5911;51.036;6.972;2022-11-20T10:18:48;18.97;;;14.63;;
11709;SDS011;5911;51.036;6.972;2022-11-20T10:21:31;18.00;;;14.40;;
11709;SDS011;5911;51.036;6.972;2022-11-20T10:24:22;18.60;;;14.47;;
11709;SDS011;5911;51.036;6.972;2022-11-20T10:26:59;18.13;;;14.63;;
11709;SDS011;5911;51.036;6.972;2022-11-20T10:29:42;18.73;;;14.60;;
11709;SDS011;5911;51.036;6.972;2022-11-20T10:32:14;19.07;;;15.07;;
11709;SDS011;5911;51.036;6.972;2022-11-20T10:34:47;20.87;;;15.87;;
11709;SDS011;5911;51.036;6.972;2022-11-20T10:37:22;19.53;;;14.67;;
11709;SDS011;5911;51.036;6.972;2022-11-20T10:39:53;19.60;;;15.27;;
11709;SDS011;5911;51.036;6.972;2022-11-20T10:42:29;18.60;;;14.63;;
11709;SDS011;5911;51.036;6.972;2022-11-20T10:45:02;20.53;;;15.27;;
11709;SDS011;5911;51.036;6.972;2022-11-20T10:47:40;20.57;;;16.03;;
11709;SDS011;5911;51.036;6.972;2022-11-20T10:50:09;20.20;;;14.30;;
11709;SDS011;5911;51.036;6.972;2022-11-20T10:52:51;22.03;;;15.17;;
11709;SDS011;5911;51.036;6.972;2022-11-20T10:55:28;22.23;;;16.40;;
11709;SDS011;5911;51.036;6.972;2022-11-20T10:58:03;19.97;;;15.57;;
11709;SDS011;5911;51.036;6.972;2022-11-20T11:00:41;19.77;;;15.50;;
11709;SDS011;5911;51.036;6.972;2022-11-20T11:03:14;21.77;;;16.33;;
11709;SDS011;5911;51.036;6.972;2022-11-20T11:05:53;18.57;;;15.03;;
11709;SDS011;5911;51.036;6.972;2022-11-20T11:08:28;19.63;;;15.33;;
11709;SDS011;5911;51.036;6.972;2022-11-20T11:11:02;19.87;;;15.57;;
11709;SDS011;5911;51.036;6.972;2022-11-20T11:13:43;20.83;;;16.27;;
11709;SDS011;5911;51.036;6.972;2022-11-20T11:16:16;18.23;;;14.87;;
11709;SDS011;5911;51.036;6.972;2022-11-20T11:18:49;20.50;;;16.00;;
11709;SDS011;5911;51.036;6.972;2022-11-20T11:21:21;22.47;;;16.07;;
11709;SDS011;5911;51.036;6.972;2022-11-20T11:23:59;20.50;;;15.40;;
11709;SDS011;5911;51.036;6.972;2022-11-20T11:26:52;23.03;;;16.23;;
11709;SDS011;5911;51.036;6.972;2022-11-20T11:29:25;22.33;;;15.80;;
11709;SDS011;5911;51.036;6.972;2022-11-20T11:32:03;22.00;;;16.17;;
11709;SDS011;5911;51.036;6.972;2022-11-20T11:34:32;20.20;;;15.60;;
11709;SDS011;5911;51.036;6.972;2022-11-20T11:37:01;21.60;;;16.33;;
11709;SDS011;5911;51.036;6.972;2022-11-20T11:39:32;23.70;;;17.17;;
11709;SDS011;5911;51.036;6.972;2022-11-20T11:42:00;22.70;;;17.23;;
11709;SDS011;5911;51.036;6.972;2022-11-20T11:44:29;24.40;;;18.13;;
11709;SDS011;5911;51.036;6.972;2022-11-20T11:47:19;23.00;;;17.80;;
11709;SDS011;5911;51.036;6.972;2022-11-20T11:50:00;25.67;;;18.03;;
11709;SDS011;5911;51.036;6.972;2022-11-20T11:52:28;21.90;;;16.03;;
11709;SDS011;5911;51.036;6.972;2022-11-20T11:55:00;22.53;;;16.73;;
11709;SDS011;5911;51.036;6.972;2022-11-20T11:57:37;24.63;;;17.97;;
11709;SDS011;5911;51.036;6.972;2022-11-20T12:00:12;25.67;;;17.10;;
11709;SDS011;5911;51.036;6.972;2022-11-20T12:02:46;22.03;;;16.53;;
11709;SDS011;5911;51.036;6.972;2022-11-20T12:05:22;22.73;;;16.43;;
11709;SDS011;5911;51.036;6.972;2022-11-20T12:07:52;21.53;;;17.03;;
11709;SDS011;5911;51.036;6.972;2022-11-20T12:10:33;25.90;;;18.10;;
11709;SDS011;5911;51.036;6.972;2022-11-20T12:13:12;22.80;;;16.97;;
11709;SDS011;5911;51.036;6.972;2022-11-20T12:15:47;21.07;;;16.60;;
11709;SDS011;5911;51.036;6.972;2022-11-20T12:18:16;23.43;;;16.87;;
11709;SDS011;5911;51.036;6.972;2022-11-20T12:20:49;23.03;;;18.40;;
11709;SDS011;5911;51.036;6.972;2022-11-20T12:23:26;22.10;;;16.30;;
11709;SDS011;5911;51.036;6.972;2022-11-20T12:26:04;24.03;;;18.03;;
11709;SDS011;5911;51.036;6.972;2022-11-20T12:28:51;24.23;;;16.87;;
11709;SDS011;5911;51.036;6.972;2022-11-20T12:31:37;19.67;;;15.33;;
11709;SDS011;5911;51.036;6.972;2022-11-20T12:34:27;21.67;;;16.37;;
11709;SDS011;5911;51.036;6.972;2022-11-20T12:37:08;20.20;;;15.77;;
11709;SDS011;5911;51.036;6.972;2022-11-20T12:39:44;21.53;;;15.53;;
11709;SDS011;5911;51.036;6.972;2022-11-20T12:42:33;26.47;;;17.20;;
11709;SDS011;5911;51.036;6.972;2022-11-20T12:45:46;24.33;;;17.77;;
11709;SDS011;5911;51.036;6.972;2022-11-20T12:48:41;22.00;;;16.03;;
11709;SDS011;5911;51.036;6.972;2022-11-20T12:51:20;22.70;;;16.23;;
11709;SDS011;5911;51.036;6.972;2022-11-20T12:54:07;23.47;;;16.40;;
11709;SDS011;5911;51.036;6.972;2022-11-20T12:56:53;24.50;;;17.40;;
11709;SDS011;5911;51.036;6.972;2022-11-20T12:59:40;25.47;;;16.93;;
11709;SDS011;5911;51.036;6.972;2022-11-20T13:02:25;24.23;;;17.13;;
11709;SDS011;5911;51.036;6.972;2022-11-20T13:05:03;21.03;;;15.97;;
11709;SDS011;5911;51.036;6.972;2022-11-20T13:07:43;21.00;;;14.57;;
11709;SDS011;5911;51.036;6.972;2022-11-20T13:10:13;20.63;;;15.97;;
11709;SDS011;5911;51.036;6.972;2022-11-20T13:12:46;21.83;;;16.50;;
11709;SDS011;5911;51.036;6.972;2022-11-20T13:15:22;21.10;;;15.37;;
11709;SDS011;5911;51.036;6.972;2022-11-20T13:18:04;21.63;;;16.07;;
11709;SDS011;5911;51.036;6.972;2022-11-20T13:20:40;17.87;;;14.63;;
11709;SDS011;5911;51.036;6.972;2022-11-20T13:23:22;21.17;;;15.47;;
11709;SDS011;5911;51.036;6.972;2022-11-20T13:25:51;20.27;;;14.47;;
11709;SDS011;5911;51.036;6.972;2022-11-20T13:28:29;19.87;;;14.97;;
11709;SDS011;5911;51.036;6.972;2022-11-20T13:31:02;20.53;;;15.03;;
11709;SDS011;5911;51.036;6.972;2022-11-20T13:33:33;19.03;;;14.47;;
11709;SDS011;5911;51.036;6.972;2022-11-20T13:36:04;20.57;;;15.17;;
11709;SDS011;5911;51.036;6.972;2022-11-20T13:38:40;20.17;;;14.47;;
11709;SDS011;5911;51.036;6.972;2022-11-20T13:41:11;20.50;;;14.47;;
11709;SDS011;5911;51.036;6.972;2022-11-20T13:44:05;19.73;;;14.83;;
11709;SDS011;5911;51.036;6.972;2022-11-20T13:46:41;21.53;;;15.43;;
11709;SDS011;5911;51.036;6.972;2022-11-20T13:49:16;16.63;;;14.03;;
11709;SDS011;5911;51.036;6.972;2022-11-20T13:51:46;18.60;;;14.27;;
11709;SDS011;5911;51.036;6.972;2022-11-20T14:00:17;21.73;;;15.13;;
11709;SDS011;5911;51.036;6.972;2022-11-20T14:02:51;17.93;;;14.03;;
11709;SDS011;5911;51.036;6.972;2022-11-20T14:05:28;20.20;;;15.00;;
11709;SDS011;5911;51.036;6.972;2022-11-20T14:07:59;21.23;;;14.20;;
11709;SDS011;5911;51.036;6.972;2022-11-20T14:10:31;18.07;;;13.47;;
11709;SDS011;5911;51.036;6.972;2022-11-20T14:13:09;20.53;;;14.80;;
11709;SDS011;5911;51.036;6.972;2022-11-20T14:15:38;17.37;;;13.20;;
11709;SDS011;5911;51.036;6.972;2022-11-20T14:18:12;18.77;;;14.20;;
11709;SDS011;5911;51.036;6.972;2022-11-20T14:20:42;18.53;;;14.40;;
11709;SDS011;5911;51.036;6.972;2022-11-20T14:23:10;19.73;;;14.70;;
11709;SDS011;5911;51.036;6.972;2022-11-20T14:25:41;21.33;;;14.87;;
11709;SDS011;5911;51.036;6.972;2022-11-20T14:28:11;19.97;;;14.30;;
11709;SDS011;5911;51.036;6.972;2022-11-20T14:30:50;20.13;;;14.87;;
11709;SDS011;5911;51.036;6.972;2022-11-20T14:33:19;19.10;;;14.30;;
11709;SDS011;5911;51.036;6.972;2022-11-20T14:35:51;21.37;;;15.47;;
11709;SDS011;5911;51.036;6.972;2022-11-20T14:38:22;22.67;;;15.77;;
11709;SDS011;5911;51.036;6.972;2022-11-20T14:40:52;20.57;;;14.53;;
11709;SDS011;5911;51.036;6.972;2022-11-20T14:43:21;17.67;;;13.03;;
11709;SDS011;5911;51.036;6.972;2022-11-20T14:45:58;17.30;;;13.80;;
11709;SDS011;5911;51.036;6.972;2022-11-20T14:48:30;17.17;;;13.63;;
11709;SDS011;5911;51.036;6.972;2022-11-20T14:51:01;19.73;;;14.63;;
11709;SDS011;5911;51.036;6.972;2022-11-20T14:53:29;17.87;;;13.00;;
11709;SDS011;5911;51.036;6.972;2022-11-20T14:55:57;18.23;;;13.03;;
11709;SDS011;5911;51.036;6.972;2022-11-20T14:58:27;17.60;;;13.67;;
11709;SDS011;5911;51.036;6.972;2022-11-20T15:00:56;17.57;;;13.50;;
11709;SDS011;5911;51.036;6.972;2022-11-20T15:03:32;18.40;;;13.30;;
11709;SDS011;5911;51.036;6.972;2022-11-20T15:06:00;18.80;;;13.00;;